Главная страница
METAR-TAF:

METAR-TAF

Аэропорты :

Дашогуз, Туркмения

широта: 41-45-53N, долгота: 059-49-59E, высота над уровнем моря: 83 м

Текущие метеонаблюдения

Эта сводка был подготовлена 25 минут назад, в 10:00 UTC
Ветер 2 Узел переменных направлений
Температура 6°C
Влажность 56%
Давление 1020 hPa
Видимость 10 км и более
Нет облачности ниже 1500 м, и нет кучево-дождевой облачности

METAR: UTAT 221000Z VRB02KT CAVOK 06/M02 Q1020 R08/CLRD70 NOSIG

Время: 15:25 (10:25 UTC)

Прогноз

Эта сводка был подготовлена 5 часа и 39 минут назад, в 04:46 UTC
Прогноз действительный с 22-го 06 UTC до 23-го 06 UTC
Ветер 12 Узел от северо-восточный
Видимость 10 км и более
Нет облачности ниже 1500 м, и нет кучево-дождевой облачности
временами
С 22-го 06 UTC до 22-го 12 UTC
Ветер 12 Узел от северный

TAF: UTAT 220446Z 2206/2306 05012KT CAVOK 530005 TEMPO 2206/2212 35012KT

Метеонаблюдения и прогнозы для более 4000 аэропортов (сводки METAR и TAF).

Имеющиеся станции представлены на карте желтыми и красными точками.

Чтобы увидеть название станции, наведите на нее мышь.

Затем щелкните, чтобы увидеть метеонаблюдения и метеопрогнозы.

Управление картой: чтобы увеличить масштаб, щелкните зеленые кнопки с черным крестиком; чтобы уменьшить масштаб, щелкните зеленую кнопку с тире; для просмотра соседних карт щелкайте зеленые стрелки.


METAR-TAF: